Time;durP1;ratioP1;P1;durP2;ratioP2;P2;SDS_P1;SDS_P2;PMS_P1;PMS_P2;Temp;Humidity;BMP_temperature;BMP_pressure;BME280_temperature;BME280_humidity;BME280_pressure;Samples;Min_cycle;Max_cycle;Signal;HPM_P1;HPM_P2
2021/07/25 00:20:39;;;;;;;19.43;17.33;;;21.20;98.30;;;;;;5042448;23;20409;-83
2021/07/25 00:23:17;;;;;;;16.70;14.93;;;21.20;98.30;;;;;;5078201;23;20443;-84
2021/07/25 13:30:38;;;;;;;10.37;9.47;;;29.30;80.40;;;;;;5047932;22;20929;-83
2021/07/25 13:32:45;;;;;;;9.60;8.80;;;29.30;80.10;;;;;;5150559;23;20495;-83
2021/07/25 13:34:50;;;;;;;10.17;9.27;;;29.30;79.50;;;;;;5151255;23;20493;-83
2021/07/25 13:36:55;;;;;;;9.33;8.57;;;29.20;79.30;;;;;;5150767;23;20444;-83
2021/07/25 13:39:01;;;;;;;9.67;8.87;;;29.40;80.20;;;;;;5151148;23;20494;-83
2021/07/25 13:41:11;;;;;;;12.13;9.13;;;29.60;78.40;;;;;;5150206;23;20443;-83
2021/07/25 13:43:16;;;;;;;10.80;9.80;;;29.70;78.00;;;;;;5151245;23;20761;-81
2021/07/25 13:45:19;;;;;;;10.27;9.10;;;30.30;78.50;;;;;;5153610;23;20457;-81
2021/07/25 13:47:24;;;;;;;9.93;9.13;;;31.20;76.40;;;;;;5152089;23;20475;-82
2021/07/25 13:49:29;;;;;;;9.80;8.90;;;32.20;75.00;;;;;;5152009;23;20420;-82
2021/07/25 13:51:34;;;;;;;9.10;8.35;;;33.20;73.00;;;;;;5142525;23;20492;-82
2021/07/25 13:53:39;;;;;;;11.23;10.23;;;33.70;71.80;;;;;;5150753;23;20511;-82
2021/07/25 13:55:42;;;;;;;12.43;11.52;;;33.80;74.30;;;;;;5150688;23;20508;-83
2021/07/25 13:57:45;;;;;;;12.50;11.60;;;34.10;75.40;;;;;;5152448;23;20436;-82
2021/07/25 13:59:50;;;;;;;13.25;12.15;;;34.60;75.10;;;;;;5150902;23;20212;-82
2021/07/25 14:01:53;;;;;;;13.65;12.65;;;34.90;74.00;;;;;;5151533;23;20192;-82
2021/07/25 14:03:59;;;;;;;14.38;13.27;;;33.80;76.00;;;;;;5152645;23;20488;-81
2021/07/25 14:06:05;;;;;;;14.27;13.00;;;31.80;81.10;;;;;;5154581;23;20181;-81
2021/07/25 14:08:12;;;;;;;14.43;13.23;;;30.80;83.40;;;;;;5146993;23;20448;-81
2021/07/25 14:10:20;;;;;;;16.23;14.63;;;29.90;85.50;;;;;;5153406;23;20480;-82
2021/07/25 14:12:25;;;;;;;14.73;13.30;;;29.90;86.50;;;;;;5153527;23;20431;-81
2021/07/25 14:14:31;;;;;;;15.37;14.00;;;30.40;86.50;;;;;;5153126;23;20511;-84
2021/07/25 14:16:34;;;;;;;15.80;14.50;;;30.80;85.00;;;;;;5152180;23;20424;-82
2021/07/25 14:18:38;;;;;;;16.40;15.00;;;30.60;85.90;;;;;;5152589;23;20423;-81
2021/07/25 14:20:43;;;;;;;14.97;13.70;;;29.70;88.20;;;;;;5151855;23;20455;-83
2021/07/25 14:22:49;;;;;;;16.07;14.63;;;29.50;89.00;;;;;;5151950;23;20963;-81
2021/07/25 14:24:52;;;;;;;16.17;14.77;;;29.20;90.10;;;;;;5152387;23;20428;-82
2021/07/25 14:26:55;;;;;;;15.33;14.00;;;29.10;90.40;;;;;;5152319;23;21091;-81
2021/07/25 14:28:58;;;;;;;14.53;13.23;;;29.10;89.60;;;;;;5152116;23;20428;-81
2021/07/25 14:31:01;;;;;;;16.77;15.17;;;28.90;90.30;;;;;;5151204;23;20439;-82
2021/07/25 14:33:08;;;;;;;15.70;14.40;;;29.00;91.30;;;;;;5151608;23;20448;-81
2021/07/25 14:35:12;;;;;;;16.43;15.03;;;29.70;90.50;;;;;;5152170;23;20434;-81
2021/07/25 14:37:16;;;;;;;14.57;13.33;;;30.30;87.20;;;;;;5151566;23;20444;-82
2021/07/25 14:39:19;;;;;;;14.33;13.13;;;30.30;85.80;;;;;;5151938;23;20428;-81
2021/07/25 14:41:22;;;;;;;14.63;13.40;;;30.50;86.20;;;;;;5152067;23;20856;-86
2021/07/25 14:43:27;;;;;;;13.77;12.47;;;31.10;85.80;;;;;;5152586;23;20500;-84
2021/07/25 14:45:30;;;;;;;15.10;13.70;;;31.00;82.20;;;;;;5152518;23;20428;-82
2021/07/25 14:47:34;;;;;;;14.97;13.67;;;30.50;84.50;;;;;;5151794;23;20778;-82
2021/07/25 14:49:37;;;;;;;13.37;12.37;;;29.50;87.90;;;;;;5152537;23;20448;-81
2021/07/25 14:51:40;;;;;;;15.00;13.60;;;29.40;88.40;;;;;;5151882;23;20420;-81
2021/07/25 14:53:46;;;;;;;13.90;12.80;;;28.80;89.80;;;;;;5152471;23;20452;-81
2021/07/25 14:55:49;;;;;;;15.43;14.13;;;28.80;90.50;;;;;;5151800;23;20456;-81
2021/07/25 14:57:52;;;;;;;15.40;14.10;;;28.40;91.60;;;;;;5151590;23;20867;-81
2021/07/25 14:59:55;;;;;;;15.27;13.97;;;28.40;91.90;;;;;;5151015;23;20435;-81
2021/07/25 15:01:59;;;;;;;16.57;15.13;;;28.20;91.90;;;;;;5150725;23;20440;-81
2021/07/25 15:04:03;;;;;;;15.43;14.13;;;27.80;92.60;;;;;;5150810;23;20487;-84
2021/07/25 15:06:17;;;;;;;16.23;14.63;;;27.70;93.40;;;;;;5150624;23;20492;-82
2021/07/25 15:08:20;;;;;;;16.07;14.33;;;27.50;93.70;;;;;;5150462;23;20466;-84
2021/07/25 15:10:25;;;;;;;15.20;13.90;;;27.60;93.40;;;;;;5150798;23;20449;-81
2021/07/25 15:12:28;;;;;;;15.43;14.03;;;27.50;93.60;;;;;;5150813;23;20428;-81
2021/07/25 15:14:31;;;;;;;15.30;13.87;;;27.40;93.80;;;;;;5150940;23;20451;-81
2021/07/25 15:16:35;;;;;;;15.00;13.70;;;27.50;94.00;;;;;;5150641;23;20478;-81
2021/07/25 15:18:38;;;;;;;15.57;14.07;;;27.70;93.50;;;;;;5151188;23;20428;-81
2021/07/25 15:20:42;;;;;;;13.80;12.60;;;27.80;92.50;;;;;;5142378;23;20432;-87
2021/07/25 15:22:46;;;;;;;13.27;12.17;;;27.80;91.40;;;;;;5150984;23;20433;-83
2021/07/25 15:24:51;;;;;;;14.00;12.00;;;27.80;91.30;;;;;;5151220;23;20453;-82
2021/07/25 15:27:01;;;;;;;13.07;12.03;;;27.80;90.50;;;;;;5150799;23;20445;-82
2021/07/25 15:29:04;;;;;;;12.90;11.70;;;28.00;89.60;;;;;;5151343;23;20451;-81
2021/07/25 15:31:07;;;;;;;11.90;10.90;;;28.20;89.50;;;;;;5150045;23;20428;-82
2021/07/25 15:33:13;;;;;;;13.73;12.43;;;28.30;89.00;;;;;;5151784;23;20809;-82
2021/07/25 15:35:16;;;;;;;12.57;11.30;;;28.40;88.70;;;;;;5151914;23;20886;-82
2021/07/25 15:37:22;;;;;;;13.57;12.27;;;28.50;88.50;;;;;;5150920;23;20473;-83
2021/07/25 15:39:26;;;;;;;12.20;11.17;;;28.60;88.20;;;;;;5150491;23;20428;-81
2021/07/25 15:41:32;;;;;;;12.07;10.97;;;28.60;88.20;;;;;;5150185;23;20468;-84
2021/07/25 15:43:37;;;;;;;12.17;11.07;;;28.50;88.20;;;;;;5150671;23;20516;-81
2021/07/25 15:45:41;;;;;;;12.40;11.40;;;28.40;88.10;;;;;;5150424;23;20944;-83
2021/07/25 15:47:45;;;;;;;11.90;10.90;;;28.40;88.30;;;;;;5150448;23;20467;-81
2021/07/25 15:49:48;;;;;;;12.23;11.00;;;28.30;88.50;;;;;;5150379;23;20430;-84
2021/07/25 15:51:51;;;;;;;12.57;11.40;;;28.30;88.70;;;;;;5150161;23;20433;-85
2021/07/25 15:53:54;;;;;;;11.97;10.87;;;28.30;88.70;;;;;;5150478;23;20752;-81
2021/07/25 15:55:57;;;;;;;11.97;10.87;;;28.20;88.90;;;;;;5150600;23;20424;-83
2021/07/25 15:58:02;;;;;;;11.57;10.47;;;28.30;88.70;;;;;;5150825;23;20451;-81
2021/07/25 16:00:08;;;;;;;11.03;10.13;;;28.30;89.50;;;;;;5151030;23;20496;-85
2021/07/25 16:02:11;;;;;;;11.67;10.50;;;28.20;90.00;;;;;;5150512;23;20594;-83
2021/07/25 16:04:15;;;;;;;11.63;10.50;;;28.20;90.00;;;;;;5150872;23;20487;-83
2021/07/25 16:06:20;;;;;;;10.37;9.33;;;28.10;89.90;;;;;;5149093;23;20440;-82
2021/07/25 16:08:23;;;;;;;11.43;10.20;;;28.00;90.10;;;;;;5140659;23;20536;-83
2021/07/25 16:10:26;;;;;;;10.80;9.80;;;28.10;90.10;;;;;;5150616;23;20436;-84
2021/07/25 16:12:29;;;;;;;12.40;10.93;;;28.10;90.80;;;;;;5150229;23;20420;-83
2021/07/25 16:14:32;;;;;;;11.60;10.60;;;28.10;91.20;;;;;;5150366;23;21011;-84
2021/07/25 16:16:37;;;;;;;11.73;10.60;;;28.00;91.70;;;;;;5150391;23;20425;-81
2021/07/25 16:18:41;;;;;;;11.20;10.10;;;28.00;92.00;;;;;;5150497;23;20425;-84
2021/07/25 16:20:44;;;;;;;11.50;10.30;;;28.10;92.00;;;;;;5150323;23;20815;-81
2021/07/25 16:22:47;;;;;;;11.37;10.27;;;28.00;92.60;;;;;;5149826;23;20527;-84
2021/07/25 16:24:50;;;;;;;10.83;9.83;;;28.00;92.90;;;;;;5150107;23;20757;-81
2021/07/25 16:26:53;;;;;;;10.97;10.07;;;28.00;92.20;;;;;;5151143;23;20800;-81
2021/07/25 16:28:57;;;;;;;11.20;10.20;;;28.00;91.80;;;;;;5152539;23;20583;-82
2021/07/25 16:31:05;;;;;;;11.97;10.77;;;28.00;91.90;;;;;;5155274;23;20433;-82
2021/07/25 16:33:11;;;;;;;11.30;10.40;;;28.00;92.10;;;;;;5146109;23;20416;-82
2021/07/25 16:35:14;;;;;;;10.97;10.03;;;28.00;92.40;;;;;;5154515;23;20793;-82
2021/07/25 16:37:17;;;;;;;11.70;10.60;;;28.00;92.80;;;;;;5156620;23;20663;-82
2021/07/25 16:39:22;;;;;;;12.83;11.63;;;28.00;93.60;;;;;;5155173;23;20421;-82
2021/07/25 16:41:25;;;;;;;12.90;11.60;;;27.90;93.80;;;;;;5154755;23;20425;-82
2021/07/25 16:43:28;;;;;;;12.27;11.17;;;28.00;93.90;;;;;;5146626;23;20448;-82
2021/07/25 16:45:31;;;;;;;18.27;16.50;;;28.00;94.50;;;;;;5153752;23;20428;-82
2021/07/25 16:47:35;;;;;;;14.57;13.10;;;28.00;94.80;;;;;;5153145;23;20515;-82
2021/07/25 16:49:43;;;;;;;22.67;20.30;;;28.00;94.50;;;;;;5152641;23;20509;-83
2021/07/25 16:51:47;;;;;;;25.03;22.63;;;28.00;94.30;;;;;;5153513;23;20412;-82
2021/07/25 16:53:50;;;;;;;15.67;14.20;;;28.00;93.30;;;;;;5154435;23;20964;-82
2021/07/25 16:55:53;;;;;;;13.23;12.03;;;28.00;93.50;;;;;;5154687;23;20446;-83
2021/07/25 16:57:57;;;;;;;14.00;12.77;;;28.00;93.20;;;;;;5153264;23;20913;-82
2021/07/25 17:00:01;;;;;;;21.60;19.50;;;28.00;92.90;;;;;;5145507;23;20466;-82
2021/07/25 17:02:04;;;;;;;13.37;12.17;;;28.00;93.20;;;;;;5154470;23;20441;-82
2021/07/25 17:04:08;;;;;;;14.37;11.30;;;28.10;93.20;;;;;;5146937;23;20432;-82
2021/07/25 17:06:12;;;;;;;12.50;11.30;;;28.00;93.70;;;;;;5153777;23;20467;-82
2021/07/25 17:08:15;;;;;;;11.40;10.40;;;27.90;94.00;;;;;;5154397;23;20508;-83
2021/07/25 17:10:19;;;;;;;12.20;11.07;;;27.80;94.70;;;;;;5154331;23;20431;-82
2021/07/25 17:12:22;;;;;;;12.00;10.90;;;27.70;94.70;;;;;;5153276;23;20492;-83
2021/07/25 17:14:25;;;;;;;11.70;10.60;;;27.60;95.00;;;;;;5143852;23;20425;-82
2021/07/25 17:16:29;;;;;;;11.87;10.70;;;27.60;95.00;;;;;;5145531;23;20729;-82
2021/07/25 17:18:32;;;;;;;10.20;9.30;;;27.60;94.90;;;;;;5154715;23;20428;-82
2021/07/25 17:20:35;;;;;;;12.10;10.57;;;27.50;95.00;;;;;;5156507;23;20924;-82
2021/07/25 17:22:40;;;;;;;13.03;11.73;;;27.50;95.00;;;;;;5156624;23;20441;-82
2021/07/25 17:24:43;;;;;;;11.73;10.63;;;27.60;95.20;;;;;;5157437;23;20449;-82
2021/07/25 17:26:46;;;;;;;12.23;11.13;;;27.40;95.30;;;;;;5156364;23;20420;-82
2021/07/25 17:28:49;;;;;;;12.00;10.80;;;27.30;95.70;;;;;;5156045;23;20432;-82
2021/07/25 17:30:52;;;;;;;12.40;11.30;;;27.30;96.10;;;;;;5155911;23;20525;-82
2021/07/25 17:32:55;;;;;;;11.80;10.60;;;27.30;96.20;;;;;;5155406;23;20885;-82
2021/07/25 17:34:58;;;;;;;11.43;10.40;;;27.30;96.00;;;;;;5155883;23;20436;-82
2021/07/25 17:37:01;;;;;;;11.27;10.27;;;27.30;96.00;;;;;;5147603;23;20463;-82
2021/07/25 17:39:06;;;;;;;12.57;11.00;;;27.20;95.30;;;;;;5155166;23;20457;-82
2021/07/25 17:41:16;;;;;;;10.53;9.63;;;27.00;95.20;;;;;;5155838;23;20420;-82
2021/07/25 17:43:20;;;;;;;11.03;9.97;;;26.90;95.90;;;;;;5153898;23;20475;-81
2021/07/25 17:45:24;;;;;;;11.27;10.23;;;26.80;96.40;;;;;;5149461;23;20416;-81
2021/07/25 17:47:27;;;;;;;11.30;10.10;;;26.70;96.60;;;;;;5149207;23;20448;-82
2021/07/25 17:49:32;;;;;;;10.33;9.43;;;26.60;96.80;;;;;;5148969;23;20424;-82
2021/07/25 17:51:35;;;;;;;9.80;8.90;;;26.60;96.50;;;;;;5156546;23;20455;-82
2021/07/25 17:53:38;;;;;;;10.27;9.37;;;26.50;96.40;;;;;;5155466;23;20428;-82
2021/07/25 17:55:50;;;;;;;9.20;8.40;;;26.50;95.90;;;;;;5148165;23;21199;-82
2021/07/25 17:58:01;;;;;;;9.43;8.60;;;26.50;95.10;;;;;;5156199;23;20527;-83
2021/07/25 18:00:07;;;;;;;9.47;8.57;;;26.40;95.00;;;;;;5156056;23;20420;-82
2021/07/25 18:02:10;;;;;;;9.73;8.73;;;26.30;95.10;;;;;;5147950;23;20420;-83
2021/07/25 18:04:39;;;;;;;8.30;7.60;;;26.30;95.00;;;;;;5145556;23;20808;-82
2021/07/25 18:07:02;;;;;;;10.23;8.63;;;26.40;95.00;;;;;;5155853;23;20511;-82
2021/07/25 18:09:10;;;;;;;10.20;9.10;;;26.40;95.50;;;;;;5154051;23;20425;-82
2021/07/25 18:11:15;;;;;;;10.10;9.20;;;26.40;95.30;;;;;;5155734;23;20417;-82
2021/07/25 18:13:18;;;;;;;10.37;9.47;;;26.40;94.90;;;;;;5148188;23;20428;-82
2021/07/25 18:15:21;;;;;;;10.27;9.30;;;26.30;95.00;;;;;;5151095;23;20413;-83
2021/07/25 18:17:31;;;;;;;10.30;9.30;;;26.30;95.30;;;;;;5155160;23;20447;-82
2021/07/25 18:19:34;;;;;;;10.10;9.00;;;26.30;95.20;;;;;;5155314;23;20820;-82
2021/07/25 18:21:40;;;;;;;9.63;8.67;;;26.30;95.00;;;;;;5153833;23;20459;-82
2021/07/25 20:10:20;;;;;;;10.00;9.10;;;24.10;98.30;;;;;;5099288;23;20413;-82
2021/07/25 20:12:30;;;;;;;12.83;10.20;;;24.10;98.30;;;;;;5110581;23;20456;-82
2021/07/25 20:14:33;;;;;;;11.50;10.47;;;24.20;98.30;;;;;;5129499;23;20446;-81
2021/07/25 20:16:36;;;;;;;12.30;11.10;;;24.20;98.30;;;;;;5136287;23;20432;-81
2021/07/25 20:18:41;;;;;;;12.17;10.97;;;24.20;98.30;;;;;;5129562;23;20430;-81
2021/07/25 20:20:44;;;;;;;12.50;11.30;;;24.20;98.30;;;;;;5126780;23;20512;-82
2021/07/25 20:22:51;;;;;;;15.40;11.73;;;24.10;98.30;;;;;;5137405;23;20429;-82
2021/07/25 20:24:54;;;;;;;12.70;11.33;;;24.10;98.30;;;;;;5131210;23;20414;-82
2021/07/25 20:26:57;;;;;;;12.10;10.90;;;24.10;98.30;;;;;;5132293;23;20477;-82
2021/07/25 20:29:18;;;;;;;12.40;11.20;;;24.00;98.30;;;;;;5144378;23;20437;-82
2021/07/25 20:31:21;;;;;;;11.80;10.60;;;24.00;98.30;;;;;;5133809;23;20430;-83
2021/07/25 20:33:24;;;;;;;12.17;10.97;;;24.00;98.30;;;;;;5125018;23;20465;-85
2021/07/25 20:35:30;;;;;;;12.47;11.27;;;24.00;98.30;;;;;;5128928;23;20831;-87
2021/07/25 20:37:34;;;;;;;13.30;11.97;;;23.90;98.30;;;;;;5122675;23;20438;-86
2021/07/25 20:39:43;;;;;;;11.80;10.60;;;23.80;98.30;;;;;;5117462;23;20434;-86
2021/07/25 20:41:51;;;;;;;15.33;11.53;;;23.70;98.30;;;;;;5117112;23;20442;-86
2021/07/25 20:43:57;;;;;;;12.80;11.60;;;23.60;98.30;;;;;;5122472;23;20442;-86
2021/07/25 20:46:01;;;;;;;12.77;11.00;;;23.50;98.30;;;;;;5123360;23;20761;-86
2021/07/25 20:48:04;;;;;;;12.50;11.40;;;23.40;98.30;;;;;;5123040;23;20499;-86
2021/07/25 20:50:09;;;;;;;12.30;11.00;;;23.50;98.30;;;;;;5122582;23;20437;-86
2021/07/25 20:52:13;;;;;;;15.13;11.87;;;23.40;98.30;;;;;;5122539;23;21348;-87
2021/07/25 20:54:16;;;;;;;13.53;12.17;;;23.30;98.30;;;;;;5114796;23;20433;-87
2021/07/25 20:56:29;;;;;;;14.30;12.23;;;23.40;98.30;;;;;;5123096;23;20405;-86
2021/07/25 20:58:32;;;;;;;13.87;12.10;;;23.40;98.30;;;;;;5115491;23;20430;-86
2021/07/25 21:00:35;;;;;;;15.17;13.53;;;23.40;98.30;;;;;;5122836;23;20457;-88
2021/07/25 21:02:39;;;;;;;14.13;12.73;;;23.40;98.30;;;;;;5123039;23;20816;-87
2021/07/25 21:04:43;;;;;;;13.43;12.13;;;23.20;98.30;;;;;;5123779;23;20442;-87
2021/07/25 21:06:46;;;;;;;16.37;13.80;;;23.20;98.30;;;;;;5124059;23;20425;-87
2021/07/25 21:08:49;;;;;;;14.70;13.30;;;23.30;98.30;;;;;;5124321;23;20437;-87
2021/07/25 21:10:55;;;;;;;15.10;13.60;;;23.20;98.30;;;;;;5124319;23;20426;-87
2021/07/25 21:13:03;;;;;;;14.80;13.20;;;23.20;98.30;;;;;;5116136;23;20939;-88
2021/07/25 21:15:07;;;;;;;14.20;12.90;;;23.20;98.30;;;;;;5123801;23;20467;-87
2021/07/25 21:17:10;;;;;;;16.20;13.20;;;23.20;98.30;;;;;;5123629;23;20446;-87
2021/07/25 21:19:13;;;;;;;13.80;12.50;;;23.30;98.30;;;;;;5114643;23;20931;-87
2021/07/25 21:21:17;;;;;;;14.17;12.80;;;23.30;98.30;;;;;;5123005;23;20425;-87
2021/07/25 21:23:35;;;;;;;13.70;12.30;;;23.40;98.30;;;;;;5123785;23;20440;-88
2021/07/25 21:25:44;;;;;;;13.67;12.37;;;23.50;98.30;;;;;;5123914;23;20481;-87
2021/07/25 21:27:47;;;;;;;15.10;13.60;;;23.50;98.30;;;;;;5123494;23;20452;-87
2021/07/25 21:29:56;;;;;;;13.93;12.43;;;23.60;98.30;;;;;;5115998;23;20434;-88
2021/07/25 21:31:59;;;;;;;14.17;12.80;;;23.60;98.30;;;;;;5123358;23;20504;-87
2021/07/25 21:34:03;;;;;;;14.23;12.80;;;23.60;98.30;;;;;;5123917;23;20453;-87
2021/07/25 21:36:08;;;;;;;15.73;14.03;;;23.60;98.30;;;;;;5115718;23;20508;-88
2021/07/25 21:38:12;;;;;;;15.80;14.30;;;23.60;98.30;;;;;;5124016;23;20513;-86
2021/07/25 21:40:15;;;;;;;15.10;13.70;;;23.60;98.30;;;;;;5117006;23;20468;-85
2021/07/25 21:42:18;;;;;;;15.50;13.87;;;23.60;98.30;;;;;;5124933;23;20430;-87
2021/07/25 21:44:22;;;;;;;15.70;14.10;;;23.60;98.30;;;;;;5124357;23;20559;-86
2021/07/25 21:46:28;;;;;;;15.80;14.03;;;23.60;98.30;;;;;;5125144;23;20425;-86
2021/07/25 21:48:33;;;;;;;17.50;15.53;;;23.60;98.30;;;;;;5123861;23;20418;-86
2021/07/25 21:50:38;;;;;;;15.40;13.90;;;23.40;98.30;;;;;;5124013;23;20420;-86
2021/07/25 21:52:41;;;;;;;16.23;14.00;;;23.30;98.30;;;;;;5124447;23;20442;-86
2021/07/25 21:54:44;;;;;;;16.60;14.90;;;23.20;98.30;;;;;;5124643;23;20505;-87
2021/07/25 21:56:47;;;;;;;16.93;15.20;;;23.00;98.30;;;;;;5124418;23;20457;-87
2021/07/25 21:58:55;;;;;;;16.13;14.53;;;23.00;98.30;;;;;;5116660;23;20440;-87
2021/07/25 22:01:02;;;;;;;16.13;14.40;;;23.10;98.30;;;;;;5116043;23;20449;-86
2021/07/25 22:03:06;;;;;;;17.20;15.37;;;23.10;98.30;;;;;;5116511;23;20413;-87
2021/07/25 22:05:11;;;;;;;16.07;14.47;;;23.00;98.30;;;;;;5123771;23;20529;-87
2021/07/25 22:07:16;;;;;;;15.27;13.70;;;23.10;98.30;;;;;;5124100;23;20515;-86
2021/07/25 22:09:19;;;;;;;16.40;14.70;;;23.10;98.30;;;;;;5124003;23;20426;-86
2021/07/25 22:11:22;;;;;;;14.43;12.90;;;23.10;98.30;;;;;;5122831;23;20422;-85
2021/07/25 22:13:25;;;;;;;16.60;13.70;;;23.10;98.30;;;;;;5123543;23;20510;-87
2021/07/25 22:15:28;;;;;;;16.53;14.73;;;23.10;98.30;;;;;;5123574;23;20810;-87
2021/07/25 22:17:32;;;;;;;15.13;13.67;;;23.10;98.30;;;;;;5121706;23;20453;-87
2021/07/25 22:19:36;;;;;;;16.00;14.50;;;23.00;98.30;;;;;;5122814;23;20466;-86
2021/07/25 22:21:40;;;;;;;15.87;13.67;;;23.00;98.30;;;;;;5113852;23;20966;-86
2021/07/25 22:23:43;;;;;;;14.87;13.33;;;22.90;98.30;;;;;;5123468;23;20425;-87
2021/07/25 22:25:46;;;;;;;15.93;14.33;;;23.00;98.30;;;;;;5123541;23;20500;-87
2021/07/25 22:27:49;;;;;;;16.73;15.03;;;23.00;98.30;;;;;;5124185;23;20860;-85
2021/07/25 22:29:52;;;;;;;16.13;14.43;;;23.00;98.30;;;;;;5124998;23;20476;-86
2021/07/25 22:31:57;;;;;;;17.17;15.37;;;23.00;98.30;;;;;;5123939;23;20426;-86
2021/07/25 22:34:00;;;;;;;15.83;14.47;;;23.00;98.30;;;;;;5124102;23;20762;-87
2021/07/25 22:36:07;;;;;;;17.77;16.07;;;22.80;98.30;;;;;;5124970;23;20405;-87
2021/07/25 22:38:10;;;;;;;17.93;16.23;;;22.80;98.30;;;;;;5115401;23;20449;-86
2021/07/25 22:40:14;;;;;;;16.70;14.63;;;22.80;98.30;;;;;;5123987;23;20449;-86
2021/07/25 22:42:17;;;;;;;15.03;13.60;;;22.70;98.30;;;;;;5124031;23;20513;-86
2021/07/25 22:44:20;;;;;;;15.80;14.10;;;22.70;98.30;;;;;;5124442;23;20422;-86
2021/07/25 22:46:23;;;;;;;16.50;14.90;;;22.80;98.30;;;;;;5124521;23;20458;-87
2021/07/25 22:48:26;;;;;;;15.47;14.07;;;22.90;98.30;;;;;;5123216;23;20492;-86
2021/07/25 22:50:30;;;;;;;21.53;14.53;;;22.90;98.30;;;;;;5123098;23;20428;-87
2021/07/25 22:52:35;;;;;;;17.00;15.30;;;22.80;98.30;;;;;;5123772;23;20957;-86
2021/07/25 22:54:38;;;;;;;16.27;14.57;;;22.60;98.30;;;;;;5116066;23;20991;-85
2021/07/25 22:56:41;;;;;;;16.80;15.10;;;22.40;98.30;;;;;;5116313;23;20508;-86
2021/07/25 22:58:44;;;;;;;16.77;14.63;;;22.30;98.30;;;;;;5124340;23;20430;-86
2021/07/25 23:00:47;;;;;;;17.57;15.73;;;22.10;98.30;;;;;;5123873;23;20506;-87
2021/07/25 23:02:50;;;;;;;16.37;14.67;;;22.10;98.30;;;;;;5123495;23;20517;-85
2021/07/25 23:04:54;;;;;;;15.53;14.03;;;22.30;98.30;;;;;;5124125;23;20433;-86
2021/07/25 23:06:58;;;;;;;17.27;15.50;;;22.30;98.30;;;;;;5124010;23;20434;-87
2021/07/25 23:09:02;;;;;;;17.47;13.67;;;22.50;98.30;;;;;;5123282;23;20963;-86
2021/07/25 23:11:06;;;;;;;15.00;13.60;;;22.50;98.30;;;;;;5123042;23;20452;-86
2021/07/25 23:13:09;;;;;;;15.73;14.13;;;22.50;98.30;;;;;;5123911;23;20430;-87
2021/07/25 23:15:13;;;;;;;16.20;14.70;;;22.60;98.30;;;;;;5124271;23;20418;-87
2021/07/25 23:17:16;;;;;;;16.10;14.40;;;22.60;98.30;;;;;;5124541;23;20449;-87
2021/07/25 23:19:20;;;;;;;15.50;14.10;;;22.60;98.30;;;;;;5114989;23;20437;-87
2021/07/25 23:21:23;;;;;;;16.37;14.70;;;22.50;98.30;;;;;;5123569;23;20454;-87
2021/07/25 23:23:26;;;;;;;14.80;13.30;;;22.50;98.30;;;;;;5125041;23;20432;-87
2021/07/25 23:25:31;;;;;;;16.37;14.67;;;22.50;98.30;;;;;;5115756;23;20450;-86
2021/07/25 23:27:34;;;;;;;15.77;14.27;;;22.60;98.30;;;;;;5123569;23;20452;-87
2021/07/25 23:29:37;;;;;;;15.70;14.20;;;22.60;98.30;;;;;;5122728;23;20496;-86
2021/07/25 23:31:40;;;;;;;16.17;14.67;;;22.60;98.30;;;;;;5122605;23;20505;-86
2021/07/25 23:33:45;;;;;;;16.10;14.57;;;22.50;98.30;;;;;;5114791;23;20430;-86
2021/07/25 23:35:48;;;;;;;17.13;15.47;;;22.50;98.30;;;;;;5123148;23;20509;-86
2021/07/25 23:37:51;;;;;;;17.97;16.07;;;22.40;98.30;;;;;;5115393;23;20537;-87
2021/07/25 23:39:57;;;;;;;16.53;14.93;;;22.40;98.30;;;;;;5124503;23;20461;-88
2021/07/25 23:42:01;;;;;;;17.33;15.73;;;22.40;98.30;;;;;;5115034;23;20436;-86
2021/07/25 23:44:07;;;;;;;16.87;15.17;;;22.50;98.30;;;;;;5123860;23;20434;-86
2021/07/25 23:46:13;;;;;;;15.70;14.20;;;22.50;98.30;;;;;;5115824;23;20517;-85
2021/07/25 23:48:16;;;;;;;17.80;14.73;;;22.50;98.30;;;;;;5123780;23;20472;-87
2021/07/25 23:50:19;;;;;;;19.30;16.10;;;22.30;98.30;;;;;;5123808;23;20418;-86
2021/07/25 23:52:22;;;;;;;17.50;15.80;;;22.30;98.30;;;;;;5123295;23;20517;-87
2021/07/25 23:54:28;;;;;;;17.70;15.70;;;22.40;98.30;;;;;;5123687;23;20480;-87
2021/07/25 23:56:31;;;;;;;20.83;16.23;;;22.30;98.30;;;;;;5123731;23;20422;-88
2021/07/25 23:58:35;;;;;;;18.67;16.57;;;22.40;98.30;;;;;;5115838;23;20461;-86
